Fort Lawn, South Carolina
Current Conditions -  °F | °C
As of 4:15 PM on Monday 22 Dec 2014 (Local Time) from KLKR Reporting Station
Moderate Rain Moderate Rain  
Wind Chill: 36°   Ceiling: 200
Heat Index: 39°   Visibility: 1.2mi
Dew Point: 39°   Wind: 5mph
Humidity: 100%   Direction: 10°N
Pressure: 30.04"   Gusts: NA
Location:  34.7°N, 80.89°W
Report Text: KLKR 222115Z AUTO 01004KT 1 1/4SM RA OVC002 04/04 A3004 RMK AO2
Loading
Personal Weather Stations






























Interactive Weather Map New forecast layout! Learn more

10-Day Weather Forecast

Advertisements
Track Severe Weather on mobile